Startpagina
METAR-TAF:

METAR-TAF

Vliegvelden :

Nörvenich, Duitsland

breedte: 50-50N, lengte: 006-40E, hoogte: 118 m

Actueel weer

Dit bericht is 31 minuten geleden gemaakt, om 03:20 UTC
Wind 1 kt uit het westzuidwesten
Temperatuur 18°C
Vochtigheid 88%
Druk 1020 hPa
Zicht 10 km of meer
Verspreide wolken op 4500 ft
Gebroken wolken op 8000 ft

METAR: ETNN 210320Z 25001KT 9999 SCT045 BKN080 18/16 Q1020 BLU

Tijdstip: 05:51 (03:51 UTC)

Verwachting

Dit bericht is 13 uur en het 3 minuten geleden gemaakt, om 14:48 UTC
Verwachting geldig van 20 om 14 UTC tot 20 om 23 UTC
Wind 8 kt uit het westnoordwesten
Zicht 10 km of meer
Verspreide wolken op 1500 ft
Gebroken wolken op 5000 ft
Tijdelijke
van 20 om 14 UTC tot 20 om 23 UTC
Wind 12 kt uit het westnoordwesten
Zicht: 1500 m
Gebroken wolken op 1000 ft
Gebroken wolken op 1500 ft
lichte regen, motregen

TAF: ETNN 201448Z 2014/2023 29008KT 9999 NSW SCT015 BKN050 TEMPO 2014/2023 30012KT 5000 -RADZ BKN010 BKN015 CANCEL 1500 BY ETGL

Waarnemingen en weersverwachtingen van meer dan 4000 vliegvelden (METAR en TAF).

De beschikbare stations zijn de gele en rode punten op de kaart.

Ga met uw muis naar het station om de naam te zien.

Klik dan om waarnemingen en weersverwachtingen te zien.

kaart wijzigen: klik op de groene knoppen met een zwart kruis om in te zoomen, op de groene knop met een streepje om uit te zoomen of op de groene pijlen voor aangrenzende kaarten.


METAR-TAF: